Super Jet — IINO — position and weather

sailwx.info

Track history (hours):
 
Tides and Currents Weather Stations Pressure Air Temp Water Temp Dewpoint Dewpoint Depression Visibility Wind Speed Wind Dir Waves Ship Positions

Super Jet

Last reported at 2017-Aug-17 19:27 UTC. Time now 2017-Aug-18 01:03 UTC.
Position N 40°38' E 014°23'.

Length 45 m; draft 1.2 m.

Type: High speed craft. MMSI: 247540000.

Date/timePositionNaut miles runAvg speedWind from/ knotsBaromVisibWave heightAir tempDewpointWater temp
2017-Aug-17 19:27N 40°38' E 014°23'0 0.0
2017-Aug-17 19:01N 40°38' E 014°23'0 0.0
2017-Aug-17 18:30N 40°38' E 014°23'0 0.0
2017-Aug-17 18:00N 40°38' E 014°23'0 0.0
2017-Aug-17 17:31N 40°38' E 014°23'0 0.0
2017-Aug-17 17:00N 40°38' E 014°23'1325.7
2017-Aug-17 16:31N 40°50' E 014°17'1 1.8
2017-Aug-17 15:55N 40°50' E 014°15'717.4
2017-Aug-17 15:30N 40°43' E 014°17'8 6.2
2017-Aug-17 14:18N 40°35' E 014°16'725.7
2017-Aug-17 14:01N 40°43' E 014°17'3 1.8
2017-Aug-17 12:14N 40°46' E 014°17'625.3
2017-Aug-17 12:01N 40°40' E 014°16'712.2
2017-Aug-17 11:27N 40°33' E 014°14'0 0.0
2017-Aug-17 11:00N 40°33' E 014°14'0 0.0
2017-Aug-17 10:30N 40°33' E 014°14'2 1.8
2017-Aug-17 09:21N 40°35' E 014°16'823.1
2017-Aug-17 09:00N 40°43' E 014°17'712.6
2017-Aug-17 08:26N 40°50' E 014°15'920.1
2017-Aug-17 08:00N 40°42' E 014°16'6 9.5
2017-Aug-17 07:20N 40°35' E 014°15'723.4
2017-Aug-17 07:00N 40°43' E 014°16'7 6.6
2017-Aug-17 05:53N 40°50' E 014°16'13 1.6
2017-Aug-16 21:28N 40°38' E 014°23'0 0.0
2017-Aug-16 19:39N 40°38' E 014°23'0 0.0
2017-Aug-16 19:30N 40°38' E 014°23'0 0.0
2017-Aug-16 19:00N 40°38' E 014°23'0 0.0
2017-Aug-16 18:30N 40°38' E 014°23'0 0.0
2017-Aug-16 18:00N 40°38' E 014°23'0 0.0
2017-Aug-16 17:30N 40°38' E 014°23'0 0.0
2017-Aug-16 17:00N 40°38' E 014°23'1325.5
2017-Aug-16 16:30N 40°50' E 014°17'1 1.9
2017-Aug-16 15:58N 40°50' E 014°15'919.4
2017-Aug-16 15:30N 40°41' E 014°16'6 5.0
2017-Aug-16 14:17N 40°35' E 014°16'726.7
2017-Aug-16 14:00N 40°43' E 014°17'815.2
2017-Aug-16 13:30N 40°50' E 014°15'0 0.0
2017-Aug-16 12:49N 40°50' E 014°15'0 0.2
2017-Aug-16 12:30N 40°50' E 014°15'1020.4
2017-Aug-16 12:01N 40°40' E 014°17'6 3.6
2017-Aug-16 10:23N 40°34' E 014°15'923.5
2017-Aug-16 10:01N 40°43' E 014°17'713.8
2017-Aug-16 09:30N 40°50' E 014°15'0 0.0
2017-Aug-16 08:57N 40°50' E 014°15'0 0.0
2017-Aug-16 08:30N 40°50' E 014°15'918.3
2017-Aug-16 08:01N 40°41' E 014°16'815.9
2017-Aug-16 07:30N 40°33' E 014°14'918.6
2017-Aug-16 07:01N 40°43' E 014°16'815.4
2017-Aug-16 06:30N 40°50' E 014°15'0 0.0
2017-Aug-16 06:00N 40°50' E 014°15'918.9
2017-Aug-16 05:31N 40°42' E 014°21'4 0.5
2017-Aug-15 21:43N 40°38' E 014°23'0 0.0
2017-Aug-15 21:30N 40°38' E 014°23'0 0.0
2017-Aug-15 21:00N 40°38' E 014°23'0 0.0
2017-Aug-15 20:31N 40°38' E 014°23'0 0.0
2017-Aug-15 20:01N 40°38' E 014°23'0 0.0
2017-Aug-15 19:31N 40°38' E 014°23'0 0.0
2017-Aug-15 19:01N 40°38' E 014°23'0 0.0
2017-Aug-15 18:31N 40°38' E 014°23'0 0.0
2017-Aug-15 18:01N 40°38' E 014°23'0 0.0
2017-Aug-15 17:31N 40°38' E 014°23'1 1.1
2017-Aug-15 17:01N 40°38' E 014°23'9 7.0
2017-Aug-15 15:43N 40°46' E 014°17'521.5
2017-Aug-15 15:30N 40°42' E 014°16'6 5.1
2017-Aug-15 14:17N 40°36' E 014°16'726.4
2017-Aug-15 14:00N 40°43' E 014°17'7 8.5
2017-Aug-15 13:08N 40°50' E 014°15'0 0.0
2017-Aug-15 12:56N 40°50' E 014°15'0 0.3
2017-Aug-15 12:30N 40°50' E 014°15'1021.0
2017-Aug-15 12:01N 40°40' E 014°16'6 4.6
2017-Aug-15 10:35N 40°33' E 014°14'1 7.1
2017-Aug-15 10:31N 40°34' E 014°15'1122.8
2017-Aug-15 10:00N 40°45' E 014°17'1 0.4
2017-Aug-15 08:12N 40°46' E 014°17'526.7
2017-Aug-15 08:01N 40°41' E 014°16'5 7.6
2017-Aug-15 07:24N 40°36' E 014°15'922.0
2017-Aug-15 07:00N 40°44' E 014°16'6 8.1
2017-Aug-15 06:17N 40°50' E 014°15'7 9.7
2017-Aug-15 05:36N 40°45' E 014°20'327.6
2017-Aug-15 05:31N 40°42' E 014°21'4 0.5
2017-Aug-14 20:30N 40°38' E 014°23'0 0.0
2017-Aug-14 19:38N 40°38' E 014°23'0 0.0
2017-Aug-14 19:30N 40°38' E 014°23'0 0.0
2017-Aug-14 19:00N 40°38' E 014°23'0 0.0
2017-Aug-14 18:30N 40°38' E 014°23'0 0.0
2017-Aug-14 18:00N 40°38' E 014°23'0 0.0
2017-Aug-14 17:30N 40°38' E 014°23'0 0.1
2017-Aug-14 17:01N 40°38' E 014°23'1326.1
2017-Aug-14 16:31N 40°50' E 014°16'5 3.6
2017-Aug-14 15:09N 40°45' E 014°17'321.5
2017-Aug-14 15:01N 40°42' E 014°17'7 1.5
2017-Aug-14 10:21N 40°35' E 014°16'823.6
2017-Aug-14 10:00N 40°44' E 014°17'3 1.7
2017-Aug-14 08:22N 40°46' E 014°17'926.0
2017-Aug-14 08:00N 40°37' E 014°15'2 3.4
2017-Aug-14 07:27N 40°35' E 014°15'1022.7
2017-Aug-14 07:00N 40°45' E 014°17'1 1.1
2017-Aug-14 05:45N 40°46' E 014°18'727.1
2017-Aug-14 05:30N 40°40' E 014°21'3 0.3
2017-Aug-13 22:17N 40°38' E 014°23'0 0.0
2017-Aug-13 20:35N 40°38' E 014°23'0 0.0
2017-Aug-13 20:30N 40°38' E 014°23'0 0.0
2017-Aug-13 20:00N 40°38' E 014°23'0 0.0
2017-Aug-13 19:30N 40°38' E 014°23'0 0.0
2017-Aug-13 19:00N 40°38' E 014°23'0 0.0
2017-Aug-13 18:31N 40°38' E 014°23'0 0.0
2017-Aug-13 18:00N 40°38' E 014°23'0 0.0
2017-Aug-13 17:30N 40°38' E 014°23'0 0.0
2017-Aug-13 17:00N 40°38' E 014°23'9 6.4
2017-Aug-13 15:38N 40°46' E 014°17'220.7
2017-Aug-13 15:31N 40°43' E 014°17'8 6.2
2017-Aug-13 14:14N 40°35' E 014°16'626.0
2017-Aug-13 14:00N 40°41' E 014°17'5 2.9
2017-Aug-13 12:20N 40°46' E 014°17'824.9
2017-Aug-13 12:01N 40°38' E 014°16'3 2.0
2017-Aug-13 10:23N 40°35' E 014°16'822.3
2017-Aug-13 10:01N 40°43' E 014°17'3 1.7
2017-Aug-13 08:11N 40°46' E 014°17'426.3
2017-Aug-13 08:00N 40°42' E 014°17'710.2
2017-Aug-13 07:19N 40°35' E 014°15'6 3.2
2017-Aug-13 05:27N 40°39' E 014°20'2 0.2
2017-Aug-12 17:01N 40°38' E 014°23'014.7
2017-Aug-12 17:01N 40°38' E 014°23'5 3.1
2017-Aug-12 15:21N 40°38' E 014°16'1 0.8
2017-Aug-12 14:14N 40°37' E 014°17'3 1.4
2017-Aug-12 12:01N 40°40' E 014°17'223.1
2017-Aug-12 11:57N 40°39' E 014°16'612.4
2017-Aug-12 11:31N 40°33' E 014°14'4 3.6
2017-Aug-12 10:20N 40°37' E 014°17'5 1.1
2017-Aug-12 05:33N 40°42' E 014°20'126.6
2017-Aug-12 05:30N 40°41' E 014°20'3 0.4
2017-Aug-11 21:18N 40°38' E 014°23'0 0.0
2017-Aug-11 21:00N 40°38' E 014°23'0 0.0
2017-Aug-11 20:30N 40°38' E 014°23'0 0.0
2017-Aug-11 20:00N 40°38' E 014°23'0 0.0
2017-Aug-11 19:30N 40°38' E 014°23'0 0.0
2017-Aug-11 18:14N 40°38' E 014°23'0 0.0
2017-Aug-11 18:00N 40°38' E 014°23'0 0.0
2017-Aug-11 17:30N 40°38' E 014°23'1 1.5
2017-Aug-11 17:01N 40°39' E 014°23'5 0.6
2017-Aug-11 09:22N 40°38' E 014°16'1 0.4
2017-Aug-11 07:57N 40°38' E 014°16'1 1.1
2017-Aug-11 07:14N 40°38' E 014°17'6 3.3
2017-Aug-11 05:33N 40°42' E 014°20'125.6
2017-Aug-11 05:30N 40°41' E 014°21'3 6.9
2017-Aug-11 05:00N 40°38' E 014°23'0 0.0
2017-Aug-10 19:01N 40°38' E 014°23'0 0.0
2017-Aug-10 18:53N 40°38' E 014°23'0 0.0
2017-Aug-10 17:00N 40°38' E 014°23'5 2.2
2017-Aug-10 14:46N 40°38' E 014°16'1 0.5
2017-Aug-10 13:18N 40°37' E 014°17'3 2.4
2017-Aug-10 12:02N 40°41' E 014°16'224.4
2017-Aug-10 11:57N 40°39' E 014°15'5 4.5
2017-Aug-10 10:46N 40°33' E 014°14'0 0.0
2017-Aug-10 10:30N 40°33' E 014°14'4 3.1
2017-Aug-10 09:21N 40°37' E 014°16'1322.8
2017-Aug-10 08:47N 40°50' E 014°17'1 4.2
2017-Aug-10 08:30N 40°50' E 014°15'1121.2
2017-Aug-10 07:59N 40°39' E 014°16'2 3.4
2017-Aug-10 07:20N 40°37' E 014°15'7 4.2
2017-Aug-10 05:35N 40°43' E 014°20'226.7
2017-Aug-10 05:30N 40°42' E 014°21'4 0.5
2017-Aug-09 20:27N 40°38' E 014°23'0 0.0
2017-Aug-09 20:01N 40°38' E 014°23'0 0.0
2017-Aug-09 19:31N 40°38' E 014°23'0 0.0
2017-Aug-09 19:01N 40°38' E 014°23'0 0.0
2017-Aug-09 18:30N 40°38' E 014°23'0 0.0
2017-Aug-09 18:01N 40°38' E 014°23'0 0.0
2017-Aug-09 17:31N 40°38' E 014°23'0 0.2
2017-Aug-09 17:00N 40°38' E 014°23'1311.6
2017-Aug-09 15:52N 40°50' E 014°16'821.8
2017-Aug-09 15:30N 40°42' E 014°17'6 4.7
2017-Aug-09 14:14N 40°36' E 014°16'626.6
2017-Aug-09 14:00N 40°42' E 014°17'8 7.1
2017-Aug-09 12:52N 40°50' E 014°15'0 1.0
2017-Aug-09 12:30N 40°50' E 014°16'14 4.3
2017-Aug-09 09:17N 40°36' E 014°16'1324.0
2017-Aug-09 08:45N 40°49' E 014°17'1 4.6
2017-Aug-09 08:26N 40°50' E 014°15'717.9
2017-Aug-09 08:00N 40°43' E 014°16'6 7.5
2017-Aug-09 07:14N 40°37' E 014°16'13 9.5
2017-Aug-09 05:51N 40°50' E 014°16'926.8
2017-Aug-09 05:30N 40°41' E 014°21'4 7.6
2017-Aug-09 05:00N 40°38' E 014°23'0 0.0
2017-Aug-08 20:58N 40°38' E 014°23'0 0.0
2017-Aug-08 20:30N 40°38' E 014°23'0 0.0
2017-Aug-08 20:00N 40°38' E 014°23'0 0.0
2017-Aug-08 19:30N 40°38' E 014°23'0 0.0
2017-Aug-08 19:00N 40°38' E 014°23'0 0.0
2017-Aug-08 18:30N 40°38' E 014°23'0 0.0
2017-Aug-08 18:00N 40°38' E 014°23'0 0.0
2017-Aug-08 17:30N 40°38' E 014°23'0 0.1
2017-Aug-08 17:01N 40°38' E 014°23'1326.1
2017-Aug-08 16:30N 40°50' E 014°16'1 1.5
2017-Aug-08 15:58N 40°50' E 014°15'1 1.7
2017-Aug-08 15:31N 40°50' E 014°16'1322.1
2017-Aug-08 14:54N 40°37' E 014°15'2 4.7
2017-Aug-08 14:27N 40°35' E 014°16'511.3
2017-Aug-08 14:01N 40°38' E 014°21'7 2.8
2017-Aug-08 11:31N 40°33' E 014°14'0 0.0
2017-Aug-08 11:30N 40°33' E 014°14'6 2.7
2017-Aug-08 09:13N 40°39' E 014°16'1023.0
2017-Aug-08 08:46N 40°50' E 014°17'1 4.4
2017-Aug-08 08:30N 40°50' E 014°15'919.4
2017-Aug-08 08:00N 40°41' E 014°16'610.0
2017-Aug-08 07:22N 40°34' E 014°15'924.3
2017-Aug-08 06:59N 40°43' E 014°17'4 2.4
2017-Aug-08 05:31N 40°42' E 014°21'4 7.9
2017-Aug-08 05:00N 40°38' E 014°23'0 0.0
2017-Aug-07 19:46N 40°38' E 014°23'0 0.0
2017-Aug-07 19:30N 40°38' E 014°23'  
Track history (hours):
 
Tides and Currents Weather Stations Pressure Air Temp Water Temp Dewpoint Dewpoint Depression Visibility Wind Speed Wind Dir Waves Ship Positions

Super Jet

Last reported at 2017-Aug-17 19:27 UTC. Time now 2017-Aug-18 01:03 UTC.
Position N 40°38' E 014°23'.

Length 45 m; draft 1.2 m.

Type: High speed craft. MMSI: 247540000.

Date/timePositionNaut miles runAvg speedWind from/ knotsBaromVisibWave heightAir tempDewpointWater temp
2017-Aug-17 19:27N 40°38' E 014°23'0 0.0
2017-Aug-17 19:01N 40°38' E 014°23'0 0.0
2017-Aug-17 18:30N 40°38' E 014°23'0 0.0
2017-Aug-17 18:00N 40°38' E 014°23'0 0.0
2017-Aug-17 17:31N 40°38' E 014°23'0 0.0
2017-Aug-17 17:00N 40°38' E 014°23'1325.7
2017-Aug-17 16:31N 40°50' E 014°17'1 1.8
2017-Aug-17 15:55N 40°50' E 014°15'717.4
2017-Aug-17 15:30N 40°43' E 014°17'8 6.2
2017-Aug-17 14:18N 40°35' E 014°16'725.7
2017-Aug-17 14:01N 40°43' E 014°17'3 1.8
2017-Aug-17 12:14N 40°46' E 014°17'625.3
2017-Aug-17 12:01N 40°40' E 014°16'712.2
2017-Aug-17 11:27N 40°33' E 014°14'0 0.0
2017-Aug-17 11:00N 40°33' E 014°14'0 0.0
2017-Aug-17 10:30N 40°33' E 014°14'2 1.8
2017-Aug-17 09:21N 40°35' E 014°16'823.1
2017-Aug-17 09:00N 40°43' E 014°17'712.6
2017-Aug-17 08:26N 40°50' E 014°15'920.1
2017-Aug-17 08:00N 40°42' E 014°16'6 9.5
2017-Aug-17 07:20N 40°35' E 014°15'723.4
2017-Aug-17 07:00N 40°43' E 014°16'7 6.6
2017-Aug-17 05:53N 40°50' E 014°16'13 1.6
2017-Aug-16 21:28N 40°38' E 014°23'0 0.0
2017-Aug-16 19:39N 40°38' E 014°23'0 0.0
2017-Aug-16 19:30N 40°38' E 014°23'0 0.0
2017-Aug-16 19:00N 40°38' E 014°23'0 0.0
2017-Aug-16 18:30N 40°38' E 014°23'0 0.0
2017-Aug-16 18:00N 40°38' E 014°23'0 0.0
2017-Aug-16 17:30N 40°38' E 014°23'0 0.0
2017-Aug-16 17:00N 40°38' E 014°23'1325.5
2017-Aug-16 16:30N 40°50' E 014°17'1 1.9
2017-Aug-16 15:58N 40°50' E 014°15'919.4
2017-Aug-16 15:30N 40°41' E 014°16'6 5.0
2017-Aug-16 14:17N 40°35' E 014°16'726.7
2017-Aug-16 14:00N 40°43' E 014°17'815.2
2017-Aug-16 13:30N 40°50' E 014°15'0 0.0
2017-Aug-16 12:49N 40°50' E 014°15'0 0.2
2017-Aug-16 12:30N 40°50' E 014°15'1020.4
2017-Aug-16 12:01N 40°40' E 014°17'6 3.6
2017-Aug-16 10:23N 40°34' E 014°15'923.5
2017-Aug-16 10:01N 40°43' E 014°17'713.8
2017-Aug-16 09:30N 40°50' E 014°15'0 0.0
2017-Aug-16 08:57N 40°50' E 014°15'0 0.0
2017-Aug-16 08:30N 40°50' E 014°15'918.3
2017-Aug-16 08:01N 40°41' E 014°16'815.9
2017-Aug-16 07:30N 40°33' E 014°14'918.6
2017-Aug-16 07:01N 40°43' E 014°16'815.4
2017-Aug-16 06:30N 40°50' E 014°15'0 0.0
2017-Aug-16 06:00N 40°50' E 014°15'918.9
2017-Aug-16 05:31N 40°42' E 014°21'4 0.5
2017-Aug-15 21:43N 40°38' E 014°23'0 0.0
2017-Aug-15 21:30N 40°38' E 014°23'0 0.0
2017-Aug-15 21:00N 40°38' E 014°23'0 0.0
2017-Aug-15 20:31N 40°38' E 014°23'0 0.0
2017-Aug-15 20:01N 40°38' E 014°23'0 0.0
2017-Aug-15 19:31N 40°38' E 014°23'0 0.0
2017-Aug-15 19:01N 40°38' E 014°23'0 0.0
2017-Aug-15 18:31N 40°38' E 014°23'0 0.0
2017-Aug-15 18:01N 40°38' E 014°23'0 0.0
2017-Aug-15 17:31N 40°38' E 014°23'1 1.1
2017-Aug-15 17:01N 40°38' E 014°23'9 7.0
2017-Aug-15 15:43N 40°46' E 014°17'521.5
2017-Aug-15 15:30N 40°42' E 014°16'6 5.1
2017-Aug-15 14:17N 40°36' E 014°16'726.4
2017-Aug-15 14:00N 40°43' E 014°17'7 8.5
2017-Aug-15 13:08N 40°50' E 014°15'0 0.0
2017-Aug-15 12:56N 40°50' E 014°15'0 0.3
2017-Aug-15 12:30N 40°50' E 014°15'1021.0
2017-Aug-15 12:01N 40°40' E 014°16'6 4.6
2017-Aug-15 10:35N 40°33' E 014°14'1 7.1
2017-Aug-15 10:31N 40°34' E 014°15'1122.8
2017-Aug-15 10:00N 40°45' E 014°17'1 0.4
2017-Aug-15 08:12N 40°46' E 014°17'526.7
2017-Aug-15 08:01N 40°41' E 014°16'5 7.6
2017-Aug-15 07:24N 40°36' E 014°15'922.0
2017-Aug-15 07:00N 40°44' E 014°16'6 8.1
2017-Aug-15 06:17N 40°50' E 014°15'7 9.7
2017-Aug-15 05:36N 40°45' E 014°20'327.6
2017-Aug-15 05:31N 40°42' E 014°21'4 0.5
2017-Aug-14 20:30N 40°38' E 014°23'0 0.0
2017-Aug-14 19:38N 40°38' E 014°23'0 0.0
2017-Aug-14 19:30N 40°38' E 014°23'0 0.0
2017-Aug-14 19:00N 40°38' E 014°23'0 0.0
2017-Aug-14 18:30N 40°38' E 014°23'0 0.0
2017-Aug-14 18:00N 40°38' E 014°23'0 0.0
2017-Aug-14 17:30N 40°38' E 014°23'0 0.1
2017-Aug-14 17:01N 40°38' E 014°23'1326.1
2017-Aug-14 16:31N 40°50' E 014°16'5 3.6
2017-Aug-14 15:09N 40°45' E 014°17'321.5
2017-Aug-14 15:01N 40°42' E 014°17'7 1.5
2017-Aug-14 10:21N 40°35' E 014°16'823.6
2017-Aug-14 10:00N 40°44' E 014°17'3 1.7
2017-Aug-14 08:22N 40°46' E 014°17'926.0
2017-Aug-14 08:00N 40°37' E 014°15'2 3.4
2017-Aug-14 07:27N 40°35' E 014°15'1022.7
2017-Aug-14 07:00N 40°45' E 014°17'1 1.1
2017-Aug-14 05:45N 40°46' E 014°18'727.1
2017-Aug-14 05:30N 40°40' E 014°21'3 0.3
2017-Aug-13 22:17N 40°38' E 014°23'0 0.0
2017-Aug-13 20:35N 40°38' E 014°23'0 0.0
2017-Aug-13 20:30N 40°38' E 014°23'0 0.0
2017-Aug-13 20:00N 40°38' E 014°23'0 0.0
2017-Aug-13 19:30N 40°38' E 014°23'0 0.0
2017-Aug-13 19:00N 40°38' E 014°23'0 0.0
2017-Aug-13 18:31N 40°38' E 014°23'0 0.0
2017-Aug-13 18:00N 40°38' E 014°23'0 0.0
2017-Aug-13 17:30N 40°38' E 014°23'0 0.0
2017-Aug-13 17:00N 40°38' E 014°23'9 6.4
2017-Aug-13 15:38N 40°46' E 014°17'220.7
2017-Aug-13 15:31N 40°43' E 014°17'8 6.2
2017-Aug-13 14:14N 40°35' E 014°16'626.0
2017-Aug-13 14:00N 40°41' E 014°17'5 2.9
2017-Aug-13 12:20N 40°46' E 014°17'824.9
2017-Aug-13 12:01N 40°38' E 014°16'3 2.0
2017-Aug-13 10:23N 40°35' E 014°16'822.3
2017-Aug-13 10:01N 40°43' E 014°17'3 1.7
2017-Aug-13 08:11N 40°46' E 014°17'426.3
2017-Aug-13 08:00N 40°42' E 014°17'710.2
2017-Aug-13 07:19N 40°35' E 014°15'6 3.2
2017-Aug-13 05:27N 40°39' E 014°20'2 0.2
2017-Aug-12 17:01N 40°38' E 014°23'014.7
2017-Aug-12 17:01N 40°38' E 014°23'5 3.1
2017-Aug-12 15:21N 40°38' E 014°16'1 0.8
2017-Aug-12 14:14N 40°37' E 014°17'3 1.4
2017-Aug-12 12:01N 40°40' E 014°17'223.1
2017-Aug-12 11:57N 40°39' E 014°16'612.4
2017-Aug-12 11:31N 40°33' E 014°14'4 3.6
2017-Aug-12 10:20N 40°37' E 014°17'5 1.1
2017-Aug-12 05:33N 40°42' E 014°20'126.6
2017-Aug-12 05:30N 40°41' E 014°20'3 0.4
2017-Aug-11 21:18N 40°38' E 014°23'0 0.0
2017-Aug-11 21:00N 40°38' E 014°23'0 0.0
2017-Aug-11 20:30N 40°38' E 014°23'0 0.0
2017-Aug-11 20:00N 40°38' E 014°23'0 0.0
2017-Aug-11 19:30N 40°38' E 014°23'0 0.0
2017-Aug-11 18:14N 40°38' E 014°23'0 0.0
2017-Aug-11 18:00N 40°38' E 014°23'0 0.0
2017-Aug-11 17:30N 40°38' E 014°23'1 1.5
2017-Aug-11 17:01N 40°39' E 014°23'5 0.6
2017-Aug-11 09:22N 40°38' E 014°16'1 0.4
2017-Aug-11 07:57N 40°38' E 014°16'1 1.1
2017-Aug-11 07:14N 40°38' E 014°17'6 3.3
2017-Aug-11 05:33N 40°42' E 014°20'125.6
2017-Aug-11 05:30N 40°41' E 014°21'3 6.9
2017-Aug-11 05:00N 40°38' E 014°23'0 0.0
2017-Aug-10 19:01N 40°38' E 014°23'0 0.0
2017-Aug-10 18:53N 40°38' E 014°23'0 0.0
2017-Aug-10 17:00N 40°38' E 014°23'5 2.2
2017-Aug-10 14:46N 40°38' E 014°16'1 0.5
2017-Aug-10 13:18N 40°37' E 014°17'3 2.4
2017-Aug-10 12:02N 40°41' E 014°16'224.4
2017-Aug-10 11:57N 40°39' E 014°15'5 4.5
2017-Aug-10 10:46N 40°33' E 014°14'0 0.0
2017-Aug-10 10:30N 40°33' E 014°14'4 3.1
2017-Aug-10 09:21N 40°37' E 014°16'1322.8
2017-Aug-10 08:47N 40°50' E 014°17'1 4.2
2017-Aug-10 08:30N 40°50' E 014°15'1121.2
2017-Aug-10 07:59N 40°39' E 014°16'2 3.4
2017-Aug-10 07:20N 40°37' E 014°15'7 4.2
2017-Aug-10 05:35N 40°43' E 014°20'226.7
2017-Aug-10 05:30N 40°42' E 014°21'4 0.5
2017-Aug-09 20:27N 40°38' E 014°23'0 0.0
2017-Aug-09 20:01N 40°38' E 014°23'0 0.0
2017-Aug-09 19:31N 40°38' E 014°23'0 0.0
2017-Aug-09 19:01N 40°38' E 014°23'0 0.0
2017-Aug-09 18:30N 40°38' E 014°23'0 0.0
2017-Aug-09 18:01N 40°38' E 014°23'0 0.0
2017-Aug-09 17:31N 40°38' E 014°23'0 0.2
2017-Aug-09 17:00N 40°38' E 014°23'1311.6
2017-Aug-09 15:52N 40°50' E 014°16'821.8
2017-Aug-09 15:30N 40°42' E 014°17'6 4.7
2017-Aug-09 14:14N 40°36' E 014°16'626.6
2017-Aug-09 14:00N 40°42' E 014°17'8 7.1
2017-Aug-09 12:52N 40°50' E 014°15'0 1.0
2017-Aug-09 12:30N 40°50' E 014°16'14 4.3
2017-Aug-09 09:17N 40°36' E 014°16'1324.0
2017-Aug-09 08:45N 40°49' E 014°17'1 4.6
2017-Aug-09 08:26N 40°50' E 014°15'717.9
2017-Aug-09 08:00N 40°43' E 014°16'6 7.5
2017-Aug-09 07:14N 40°37' E 014°16'13 9.5
2017-Aug-09 05:51N 40°50' E 014°16'926.8
2017-Aug-09 05:30N 40°41' E 014°21'4 7.6
2017-Aug-09 05:00N 40°38' E 014°23'0 0.0
2017-Aug-08 20:58N 40°38' E 014°23'0 0.0
2017-Aug-08 20:30N 40°38' E 014°23'0 0.0
2017-Aug-08 20:00N 40°38' E 014°23'0 0.0
2017-Aug-08 19:30N 40°38' E 014°23'0 0.0
2017-Aug-08 19:00N 40°38' E 014°23'0 0.0
2017-Aug-08 18:30N 40°38' E 014°23'0 0.0
2017-Aug-08 18:00N 40°38' E 014°23'0 0.0
2017-Aug-08 17:30N 40°38' E 014°23'0 0.1
2017-Aug-08 17:01N 40°38' E 014°23'1326.1
2017-Aug-08 16:30N 40°50' E 014°16'1 1.5
2017-Aug-08 15:58N 40°50' E 014°15'1 1.7
2017-Aug-08 15:31N 40°50' E 014°16'1322.1
2017-Aug-08 14:54N 40°37' E 014°15'2 4.7
2017-Aug-08 14:27N 40°35' E 014°16'511.3
2017-Aug-08 14:01N 40°38' E 014°21'7 2.8
2017-Aug-08 11:31N 40°33' E 014°14'0 0.0
2017-Aug-08 11:30N 40°33' E 014°14'6 2.7
2017-Aug-08 09:13N 40°39' E 014°16'1023.0
2017-Aug-08 08:46N 40°50' E 014°17'1 4.4
2017-Aug-08 08:30N 40°50' E 014°15'919.4
2017-Aug-08 08:00N 40°41' E 014°16'610.0
2017-Aug-08 07:22N 40°34' E 014°15'924.3
2017-Aug-08 06:59N 40°43' E 014°17'4 2.4
2017-Aug-08 05:31N 40°42' E 014°21'4 7.9
2017-Aug-08 05:00N 40°38' E 014°23'0 0.0
2017-Aug-07 19:46N 40°38' E 014°23'0 0.0
2017-Aug-07 19:30N 40°38' E 014°23'  

Dump ship's entire track history